Historyczne dane pomiarowe

Dodano dane terminowe – wersja testowa.

Dane z okresu 1951-2019

Wersja bazy: 1.34 [2019-03-16, lista zmian], aktualizacja planowana na 2019-04-15

Dane meteo z obszaru Polski uzyskane na podstawie danych udostępnionych przez Instytut Meteorologii i Gospodarki Wodnej – Państwowy Instytut Badawczy.

 

Wybierz Datę:    

       

TemperaturaWilgotnośćWiatrCiśnienieOpadyŚniegCzas trwania zjawisk
 Stacja t tx tn tng RH VA  wxwx mslp ppp RRR   cm mm wxwxwxwxwxwxwx
1994-08-14 16.0 21.0 11.7- 69.8- 4.0 1.3---- 0.0------------
1994-08-13 18.9 24.0 16.5- 80.3- 6.7 1.0---- 4.6------------
1994-08-12 17.2 20.0 12.6- 84.3- 6.0 2.0---- 0.2------------
1994-08-11 17.6 24.6 12.9- 94.3- 6.3 1.0---- 11.4------------
1994-08-10 19.2 27.7 9.7- 78.5- 1.3 0.0---- 0.0------------
1994-08-09 15.7 24.7 12.6- 92.8- 6.7 1.3---- 37.6------------
1994-08-08 20.0 31.1 14.7- 88.0- 5.0 0.3---- 2.8------------
1994-08-07 21.9 31.3 11.7- 76.5- 5.0 0.7---- 0.0------------
1994-08-06 21.5 32.1 9.9- 72.0- 1.0 1.0---- 0.0------------
1994-08-05 22.6 33.2 12.8- 73.0- 1.7 0.7---- 0.0------------
1994-08-04 21.6 30.1 12.0- 83.8- 4.3 0.7---- 0.0------------
1994-08-03 21.3 28.3 13.9- 72.0- 3.7 2.3---- 0.4------------
1994-08-02 22.0 33.1 11.0- 70.0- 2.0 0.7---- 5.6------------
1994-08-01 24.7 34.6 11.9- 66.3- 1.7 1.0---- 0.0------------
1994-07-31 22.8 34.6 11.5- 74.0- 1.0 0.7---- 0.0------------
1994-07-30 21.8 35.0 10.0- 67.5- 0.7 0.7---- 0.0------------
1994-07-29 20.9 33.3 9.5- 67.3- 0.0 0.7---- 0.0------------
1994-07-28 21.1 32.1 9.0- 71.3- 2.0 1.0---- 0.0------------
1994-07-27 21.2 32.6 10.5- 69.3- 1.7 1.0---- 0.0------------
1994-07-26 21.1 31.8 11.3- 68.0- 1.3 0.3---- 0.0------------
1994-07-25 21.6 31.8 11.0- 74.0- 3.3 0.7---- 0.0------------
1994-07-24 20.6 31.0 8.8- 76.5- 0.7 0.0---- 0.0------------
1994-07-23 18.6 29.0 8.2- 70.8- 1.7 1.0---- 0.0------------
1994-07-22 19.7 29.0 7.8- 71.8- 0.7 0.3---- 0.0------------
1994-07-21 18.8 28.0 7.1- 75.3- 0.7 0.0---- 0.0------------
1994-07-20 17.8 24.8 10.0- 74.8- 2.7 1.7---- 0.0------------
1994-07-19 19.2 26.0 12.0- 81.0- 5.3 1.0---- 0.0------------
1994-07-18 20.7 26.5 17.0- 87.5- 3.7 0.3---- 2.0------------
1994-07-17 22.6 31.0 14.8- 77.0- 4.7 0.3---- 8.9------------
1994-07-16 23.2 32.0 11.7- 77.0- 1.7 0.7---- 0.0------------
1994-07-15 20.9 29.5 11.7- 79.0- 3.3 1.0---- 0.0------------
1994-07-14 21.0 28.8 11.7- 76.3- 3.3 0.0---- 0.0------------
1994-07-13 20.3 28.0 9.6- 75.5- 4.0 1.7---- 0.0------------
1994-07-12 20.2 28.2 13.5- 82.3- 4.7 1.3---- 0.0------------
1994-07-11 17.4 23.5 11.7- 85.0- 5.3 2.0---- 0.0------------
1994-07-10 14.4 21.0 9.7- 90.0- 6.0 1.3---- 1.2------------
1994-07-09 12.7 18.2 6.9- 84.3- 5.0 1.3---- 9.5------------
1994-07-08 16.3 22.6 11.8- 71.5- 3.0 2.7---- 0.0------------
1994-07-07 14.8 25.0 6.9- 80.5- 2.0 0.3---- 0.9------------
1994-07-06 17.6 24.2 8.8- 74.0- 1.0 1.0---- 0.0------------
1994-07-05 18.2 26.5 7.6- 72.5- 3.3 0.7---- 3.6------------
1994-07-04 19.6 29.0 7.0- 71.8- 1.0 0.3---- 0.0------------
1994-07-03 19.2 27.8 7.5- 72.3- 0.7 0.7---- 0.0------------
1994-07-02 18.3 26.0 8.5- 74.0- 0.7 0.7---- 0.0------------
1994-07-01 20.4 25.1 17.5- 76.0- 3.7 1.0---- 0.0------------
1994-06-30 21.9 27.5 16.0- 84.3- 4.7 2.7---- 1.3------------
1994-06-29 22.9 31.2 12.8- 80.3- 1.3 0.0---- 0.0------------
1994-06-28 22.9 30.1 12.0- 80.0- 1.7 0.7---- 0.0------------
1994-06-27 23.6 31.3 12.9- 80.5- 3.3 0.7---- 0.0------------
1994-06-26 20.2 30.1 5.6- 66.8- 0.7 1.3---- 0.0------------
1994-06-25 15.9 25.4 3.4- 68.5- 0.0 0.7---- 0.0------------
1994-06-24 14.8 21.4 4.6- 64.5- 0.3 2.3---- 0.0------------
1994-06-23 18.2 24.1 16.5- 65.8- 3.7 2.7---- 0.0------------
1994-06-22 18.3 28.0 5.9- 77.3- 3.0 1.3---- 0.0------------
1994-06-21 15.7 21.0 5.9- 72.3- 2.0 1.0---- 0.0------------
1994-06-20 16.6 25.0 8.0- 75.3- 3.3 2.7---- 0.0------------
1994-06-19 19.7 25.8 11.7- 76.3- 5.0 1.0---- 0.0------------
1994-06-18 12.8 21.3 2.9- 78.3- 5.7 0.0---- 5.8------------
1994-06-17 12.6 16.8 9.7- 76.3- 4.0 3.3---- 0.3------------
1994-06-16 13.9 17.8 5.5- 71.8- 5.0 2.0---- 0.9------------
259.2 ms

 

Źródłem pochodzenia danych jest Instytut Meteorologii i Gospodarki Wodnej – Państwowy Instytut Badawczy. Dane Instytutu Meteorologii i Gospodarki Wodnej – Państwowego Instytutu Badawczego zostały przetworzone.

Dane źródłowe można odnaleźć na stronie https://dane.imgw.pl